Country
Station

 

Weather  for  Le Puy  -  France    France

  
5 °C (41 °F)
    
 
 

Current METAR for Le Puy is :

LFHP 121430Z AUTO 20005KT 140V240 9999 BKN029 BKN054 BKN068 05/01 Q1002

 

This is a report for Le Puy - France.
 
The report was made 30 minutes ago, at 14:30 UTC .
The wind was blowing at a speed of 2.6 meters per second (5.8 miles per hour) from south/southwest (200°), varying between southeast (140°) and west/southwest (240°).
 
The temperature was 5 °C (41 °F), with a dew-point at 1 °C (34 °F).
The atmospheric pressure was 1002 hPa (29.59 inHg).
The relative humidity was 75.3%.
 
There were broken clouds at a height of 884 meters (2900 feet), broken clouds at a height of 1646 meters (5400 feet) and broken clouds at a height of 2073 meters (6800 feet).
 
The overall visibility was greater than 10 kilometers (6.2 miles).
 

 
 
 
 

Country :   A   B   C   D   E   F   G   H   I   J   K   L   M   N   O   P   Q   R   S   T   U   V   W   Y   Z

 

Site Info  |  Disclaimer  |  Credits  |  Privacy
Contact us  |  Add to favorites
© 2013-2019 METARs - All rights reserved